createdAt,value
2018-07-23T00:00:51.064Z,10.20
2018-07-23T00:03:18.256Z,10.30
2018-07-23T00:05:45.448Z,8.83
2018-07-23T00:08:13.017Z,10.07
2018-07-23T00:10:40.145Z,9.27
2018-07-23T00:13:07.236Z,8.50
2018-07-23T00:15:34.348Z,9.23
2018-07-23T00:18:01.457Z,8.67
2018-07-23T00:20:28.601Z,9.23
2018-07-23T00:22:55.714Z,8.70
2018-07-23T00:25:22.836Z,9.30
2018-07-23T00:27:49.942Z,9.20
2018-07-23T00:30:17.067Z,9.47
2018-07-23T00:32:44.169Z,9.17
2018-07-23T00:35:11.291Z,8.63
2018-07-23T00:37:38.385Z,9.07
2018-07-23T00:40:05.492Z,8.70
2018-07-23T00:42:32.617Z,8.97
2018-07-23T00:44:59.873Z,8.53
2018-07-23T00:47:26.968Z,9.10
2018-07-23T00:49:54.078Z,8.93
2018-07-23T00:52:21.160Z,8.87
2018-07-23T00:54:48.288Z,8.47
2018-07-23T00:57:15.381Z,8.50
2018-07-23T00:59:42.496Z,8.73
2018-07-23T01:02:09.596Z,8.77
2018-07-23T01:04:36.863Z,8.60
2018-07-23T01:07:03.957Z,8.70
2018-07-23T01:09:31.362Z,8.60
2018-07-23T01:11:58.456Z,9.27
2018-07-23T01:14:25.594Z,8.40
2018-07-23T01:16:52.819Z,8.97
2018-07-23T01:19:19.904Z,8.80
2018-07-23T01:21:47.037Z,9.13
2018-07-23T01:24:14.236Z,9.20
2018-07-23T01:26:41.340Z,8.37
2018-07-23T01:29:08.425Z,8.67
2018-07-23T01:31:35.536Z,8.30
2018-07-23T01:34:02.641Z,8.87
2018-07-23T01:36:29.758Z,9.13
2018-07-23T01:38:57.020Z,8.47
2018-07-23T01:41:24.233Z,8.80
2018-07-23T01:43:51.331Z,8.60
2018-07-23T01:46:18.786Z,8.30
2018-07-23T01:48:45.881Z,8.20
2018-07-23T01:51:12.994Z,8.37
2018-07-23T01:53:40.077Z,8.50
2018-07-23T01:56:07.180Z,8.67
2018-07-23T01:58:34.276Z,8.67
2018-07-23T02:01:04.857Z,8.27
2018-07-23T02:03:31.962Z,8.60
2018-07-23T02:05:59.085Z,8.23
2018-07-23T02:08:26.187Z,8.80
2018-07-23T02:10:53.284Z,8.97
2018-07-23T02:13:20.408Z,8.50
2018-07-23T02:15:47.509Z,8.20
2018-07-23T02:18:14.678Z,9.30
2018-07-23T02:20:41.729Z,8.93
2018-07-23T02:23:08.825Z,8.90
2018-07-23T02:25:35.936Z,8.00
2018-07-23T02:28:03.063Z,8.57
2018-07-23T02:30:30.149Z,8.87
2018-07-23T02:32:57.369Z,8.83
2018-07-23T02:35:24.452Z,8.20
2018-07-23T02:37:51.618Z,8.70
2018-07-23T02:40:18.724Z,8.40
2018-07-23T02:42:45.829Z,8.67
2018-07-23T02:45:12.921Z,8.70
2018-07-23T02:47:40.017Z,8.70
2018-07-23T02:50:07.157Z,8.77
2018-07-23T02:52:34.253Z,8.50
2018-07-23T02:55:01.345Z,8.00
2018-07-23T02:57:28.504Z,8.73
2018-07-23T02:59:55.712Z,8.80
2018-07-23T03:02:22.841Z,8.83
2018-07-23T03:04:49.937Z,8.40
2018-07-23T03:07:17.032Z,8.70
2018-07-23T03:09:44.144Z,9.43
2018-07-23T03:12:11.249Z,8.60
2018-07-23T03:14:38.594Z,8.63
2018-07-23T03:17:05.680Z,8.60
2018-07-23T03:19:32.796Z,9.00
2018-07-23T03:21:59.931Z,8.97
2018-07-23T03:24:27.134Z,8.50
2018-07-23T03:26:54.204Z,8.90
2018-07-23T03:29:21.316Z,8.20
2018-07-23T03:31:48.405Z,9.40
2018-07-23T03:34:15.497Z,9.07
2018-07-23T03:36:43.008Z,9.27
2018-07-23T03:39:11.096Z,8.80
2018-07-23T03:41:38.293Z,9.07
2018-07-23T03:44:05.438Z,8.10
2018-07-23T03:46:32.526Z,8.80
2018-07-23T03:48:59.630Z,7.80
2018-07-23T03:51:26.825Z,8.03
2018-07-23T03:53:53.916Z,8.30
2018-07-23T03:56:21.020Z,8.00
2018-07-23T03:58:48.117Z,8.97
2018-07-23T04:01:15.221Z,9.00
2018-07-23T04:03:42.319Z,8.63
2018-07-23T04:06:09.437Z,8.37
2018-07-23T04:08:36.546Z,8.47
2018-07-23T04:11:03.778Z,8.30
2018-07-23T04:13:30.900Z,8.53
2018-07-23T04:15:57.992Z,8.17
2018-07-23T04:18:25.092Z,8.23
2018-07-23T04:20:52.190Z,8.73
2018-07-23T04:23:19.296Z,7.77
2018-07-23T04:25:46.395Z,7.87
2018-07-23T04:28:13.505Z,8.50
2018-07-23T04:30:40.606Z,8.00
2018-07-23T04:33:07.750Z,7.83
2018-07-23T04:35:34.860Z,8.30
2018-07-23T04:38:01.980Z,8.07
2018-07-23T04:40:29.081Z,7.60
2018-07-23T04:42:56.169Z,7.60
2018-07-23T04:45:23.269Z,7.63
2018-07-23T04:47:50.369Z,7.90
2018-07-23T04:50:17.480Z,7.47
2018-07-23T04:52:44.576Z,8.20
2018-07-23T04:55:11.932Z,8.30
2018-07-23T04:57:39.295Z,7.97
2018-07-23T05:00:06.385Z,7.73
2018-07-23T05:02:33.484Z,7.60
2018-07-23T05:05:00.619Z,9.17
2018-07-23T05:07:27.725Z,7.80
2018-07-23T05:09:54.821Z,8.50
2018-07-23T05:12:21.926Z,8.23
2018-07-23T05:14:49.049Z,8.23
2018-07-23T05:17:16.165Z,8.10
2018-07-23T05:19:43.789Z,8.57
2018-07-23T05:22:11.308Z,8.40
2018-07-23T05:24:38.486Z,7.73
2018-07-23T05:27:05.539Z,8.87
2018-07-23T05:29:32.845Z,8.80
2018-07-23T05:31:59.946Z,8.83
2018-07-23T05:34:27.064Z,9.80
2018-07-23T05:36:54.179Z,10.00
2018-07-23T05:39:21.293Z,10.20
2018-07-23T05:41:48.396Z,11.63
2018-07-23T05:44:15.513Z,10.67
2018-07-23T05:46:42.629Z,11.70
2018-07-23T05:49:09.892Z,10.97
2018-07-23T05:51:37.000Z,12.63
2018-07-23T05:54:04.181Z,13.67
2018-07-23T05:56:31.297Z,13.50
2018-07-23T05:58:58.576Z,13.30
2018-07-23T06:01:25.741Z,14.23
2018-07-23T06:03:52.865Z,14.63
2018-07-23T06:06:19.980Z,14.10
2018-07-23T06:08:47.062Z,13.23
2018-07-23T06:11:14.208Z,13.23
2018-07-23T06:13:41.316Z,14.13
2018-07-23T06:16:08.524Z,14.27
2018-07-23T06:18:35.633Z,13.87
2018-07-23T06:21:02.757Z,13.83
2018-07-23T06:23:29.856Z,15.30
2018-07-23T06:25:56.957Z,14.60
2018-07-23T06:28:24.089Z,14.07
2018-07-23T06:30:51.192Z,13.90
2018-07-23T06:33:18.303Z,14.33
2018-07-23T06:35:45.406Z,15.10
2018-07-23T06:38:12.509Z,14.23
2018-07-23T06:40:39.641Z,13.77
2018-07-23T06:43:06.756Z,16.03
2018-07-23T06:45:33.872Z,15.20
2018-07-23T06:48:01.009Z,15.00
2018-07-23T06:50:28.137Z,15.80
2018-07-23T06:52:55.241Z,15.27
2018-07-23T06:55:22.383Z,14.40
2018-07-23T06:57:49.500Z,15.03
2018-07-23T07:00:16.705Z,15.03
2018-07-23T07:02:44.157Z,15.40
2018-07-23T07:05:11.292Z,14.60
2018-07-23T07:07:38.443Z,15.40
2018-07-23T07:10:05.965Z,14.13
2018-07-23T07:12:33.100Z,14.13
2018-07-23T07:15:00.237Z,14.33
2018-07-23T07:17:27.350Z,16.07
2018-07-23T07:19:54.508Z,15.20
2018-07-23T07:22:21.904Z,14.93
2018-07-23T07:24:49.036Z,14.10
2018-07-23T07:27:16.161Z,14.77
2018-07-23T07:29:43.533Z,14.40
2018-07-23T07:32:10.676Z,13.10
2018-07-23T07:34:37.780Z,12.50
2018-07-23T07:37:05.066Z,11.70
2018-07-23T07:39:32.169Z,12.50
2018-07-23T07:41:59.286Z,13.10
2018-07-23T07:44:26.901Z,13.50
2018-07-23T07:46:54.011Z,13.83
2018-07-23T07:49:21.111Z,13.30
2018-07-23T07:51:48.224Z,11.90
2018-07-23T07:54:15.324Z,11.33
2018-07-23T07:56:42.468Z,11.07
2018-07-23T07:59:09.594Z,12.70
2018-07-23T08:01:36.752Z,13.97
2018-07-23T08:04:03.941Z,12.50
2018-07-23T08:06:31.064Z,12.70
2018-07-23T08:08:58.200Z,13.40
2018-07-23T08:11:25.385Z,11.67
2018-07-23T08:13:52.552Z,13.37
2018-07-23T08:16:19.733Z,10.27
2018-07-23T08:18:46.945Z,12.43
2018-07-23T08:21:14.395Z,12.23
2018-07-23T08:23:41.487Z,10.57
2018-07-23T08:26:08.702Z,11.33
2018-07-23T08:28:35.876Z,11.10
2018-07-23T08:31:03.341Z,11.70
2018-07-23T08:33:30.469Z,10.73
2018-07-23T08:35:57.708Z,12.17
2018-07-23T08:38:24.893Z,13.20
2018-07-23T08:40:52.077Z,13.40
2018-07-23T08:43:19.172Z,10.77
2018-07-23T08:45:46.286Z,13.93
2018-07-23T08:48:13.401Z,12.90
2018-07-23T08:50:40.510Z,12.77
2018-07-23T08:53:07.629Z,11.93
2018-07-23T08:55:34.735Z,10.87
2018-07-23T08:58:03.737Z,11.50
2018-07-23T09:00:30.832Z,10.07
2018-07-23T09:02:57.956Z,8.67
2018-07-23T09:05:25.060Z,9.10
2018-07-23T09:07:52.185Z,9.83
2018-07-23T09:10:19.300Z,9.70
2018-07-23T09:12:46.392Z,10.83
2018-07-23T09:15:13.504Z,9.83
2018-07-23T09:17:40.622Z,9.30
2018-07-23T09:20:07.728Z,9.87
2018-07-23T09:22:35.702Z,8.97
2018-07-23T09:25:02.882Z,8.60
2018-07-23T09:27:30.220Z,8.77
2018-07-23T09:29:57.312Z,8.50
2018-07-23T09:32:24.483Z,10.80
2018-07-23T09:34:51.590Z,9.40
2018-07-23T09:37:18.715Z,9.67
2018-07-23T09:39:45.907Z,9.60
2018-07-23T09:42:13.024Z,9.20
2018-07-23T09:44:40.172Z,9.00
2018-07-23T09:47:07.289Z,8.27
2018-07-23T09:49:34.438Z,8.67
2018-07-23T09:52:01.576Z,9.63
2018-07-23T09:54:28.872Z,9.73
2018-07-23T09:56:55.980Z,9.10
2018-07-23T09:59:23.200Z,8.90
2018-07-23T10:01:54.174Z,9.77
2018-07-23T10:06:55.184Z,9.07
2018-07-23T10:09:22.333Z,10.33
2018-07-23T10:11:49.444Z,8.20
2018-07-23T10:14:16.578Z,9.97
2018-07-23T10:16:43.951Z,9.67
2018-07-23T10:19:11.073Z,9.57
2018-07-23T10:21:38.216Z,10.20
2018-07-23T10:24:05.324Z,10.23
2018-07-23T10:26:32.540Z,10.87
2018-07-23T10:28:59.655Z,11.40
2018-07-23T10:31:26.769Z,9.77
2018-07-23T10:33:53.875Z,11.50
2018-07-23T10:36:20.988Z,9.90
2018-07-23T10:38:48.125Z,11.93
2018-07-23T10:41:15.360Z,11.90
2018-07-23T10:43:42.750Z,10.50
2018-07-23T10:46:09.881Z,9.40
2018-07-23T10:48:36.998Z,9.63
2018-07-23T10:51:04.168Z,9.53
2018-07-23T10:53:31.259Z,9.57
2018-07-23T10:55:58.368Z,9.10
2018-07-23T10:58:25.482Z,10.07
2018-07-23T11:00:52.605Z,10.37
2018-07-23T11:03:19.733Z,10.80
2018-07-23T11:05:46.845Z,12.60
2018-07-23T11:08:13.972Z,10.83
2018-07-23T11:10:41.190Z,11.47
2018-07-23T11:13:08.328Z,10.50
2018-07-23T11:15:35.432Z,9.10
2018-07-23T11:18:02.539Z,9.47
2018-07-23T11:20:29.668Z,8.57
2018-07-23T11:22:56.783Z,8.37
2018-07-23T11:25:39.086Z,9.07
2018-07-23T11:27:51.082Z,8.20
2018-07-23T11:30:18.661Z,7.97
2018-07-23T11:32:46.111Z,7.93
2018-07-23T11:35:13.624Z,8.73
2018-07-23T11:37:40.774Z,8.90
2018-07-23T11:40:07.927Z,8.63
2018-07-23T11:42:35.053Z,7.87
2018-07-23T11:45:02.154Z,9.33
2018-07-23T11:47:29.414Z,8.40
2018-07-23T11:49:56.584Z,8.47
2018-07-23T11:52:23.949Z,8.80
2018-07-23T11:54:51.182Z,8.80
2018-07-23T11:57:18.381Z,8.77
2018-07-23T11:59:45.490Z,10.83
2018-07-23T12:02:13.154Z,10.90
2018-07-23T12:04:40.439Z,8.80
2018-07-23T12:07:07.941Z,9.47
2018-07-23T12:09:37.239Z,9.57
2018-07-23T12:12:04.425Z,8.67
2018-07-23T12:14:31.540Z,7.27
2018-07-23T12:16:58.638Z,7.53
2018-07-23T12:19:25.741Z,8.60
2018-07-23T12:21:52.837Z,8.43
2018-07-23T12:24:19.940Z,8.60
2018-07-23T12:26:47.044Z,9.63
2018-07-23T12:29:14.164Z,8.50
2018-07-23T12:31:42.169Z,9.10
2018-07-23T12:34:09.276Z,8.53
2018-07-23T12:36:36.436Z,8.57
2018-07-23T12:39:05.554Z,8.70
2018-07-23T12:41:32.795Z,8.80
2018-07-23T12:43:59.929Z,7.90
2018-07-23T12:46:27.062Z,9.33
2018-07-23T12:48:54.169Z,8.70
2018-07-23T12:51:21.277Z,8.43
2018-07-23T12:53:48.357Z,8.13
2018-07-23T12:56:15.452Z,8.40
2018-07-23T12:58:42.550Z,8.40
2018-07-23T13:01:09.716Z,8.63
2018-07-23T13:03:36.812Z,9.83
2018-07-23T13:06:03.947Z,9.20
2018-07-23T13:08:31.072Z,9.40
2018-07-23T13:10:58.225Z,10.30
2018-07-23T13:13:25.345Z,10.63
2018-07-23T13:15:52.444Z,10.30
2018-07-23T13:18:19.541Z,9.80
2018-07-23T13:20:46.632Z,9.10
2018-07-23T13:23:13.733Z,10.10
2018-07-23T13:25:40.918Z,11.50
2018-07-23T13:28:07.968Z,10.50
2018-07-23T13:30:35.097Z,10.20
2018-07-23T13:33:02.246Z,10.03
2018-07-23T13:35:29.336Z,8.93
2018-07-23T13:37:56.449Z,9.60
2018-07-23T13:40:23.544Z,10.30
2018-07-23T13:42:50.654Z,11.10
2018-07-23T13:45:17.769Z,9.83
2018-07-23T13:47:44.933Z,9.60
2018-07-23T13:50:12.042Z,10.57
2018-07-23T13:52:39.136Z,10.20
2018-07-23T13:55:06.234Z,9.83
2018-07-23T13:57:33.636Z,9.40
2018-07-23T14:00:00.721Z,9.57
2018-07-23T14:02:27.840Z,9.30
2018-07-23T14:04:54.994Z,9.60
2018-07-23T14:07:22.072Z,8.97
2018-07-23T14:09:49.165Z,9.60
2018-07-23T14:12:16.253Z,9.47
2018-07-23T14:14:43.400Z,8.97
2018-07-23T14:17:10.509Z,8.50
2018-07-23T14:19:37.604Z,8.53
2018-07-23T14:22:04.705Z,8.90
2018-07-23T14:24:31.797Z,8.30
2018-07-23T14:26:58.900Z,9.20
2018-07-23T14:29:26.020Z,9.30
2018-07-23T14:31:53.106Z,9.03
2018-07-23T14:34:20.752Z,8.53
2018-07-23T14:36:47.853Z,9.23
2018-07-23T14:39:14.948Z,8.50
2018-07-23T14:41:42.071Z,9.00
2018-07-23T14:44:09.242Z,9.20
2018-07-23T14:46:36.432Z,8.90
2018-07-23T14:49:03.548Z,9.90
2018-07-23T14:51:30.772Z,8.87
2018-07-23T14:53:57.869Z,7.93
2018-07-23T14:56:24.968Z,8.90
2018-07-23T14:58:52.093Z,8.00
2018-07-23T15:01:19.204Z,8.20
2018-07-23T15:03:46.298Z,8.57
2018-07-23T15:06:13.445Z,7.87
2018-07-23T15:08:40.549Z,8.40
2018-07-23T15:11:07.672Z,8.73
2018-07-23T15:13:34.768Z,8.20
2018-07-23T15:16:01.888Z,8.10
2018-07-23T15:18:28.984Z,8.00
2018-07-23T15:20:56.076Z,8.73
2018-07-23T15:23:23.181Z,8.40
2018-07-23T15:25:50.305Z,8.47
2018-07-23T15:28:17.396Z,7.70
2018-07-23T15:30:44.528Z,8.73
2018-07-23T15:33:11.677Z,8.07
2018-07-23T15:35:38.764Z,8.10
2018-07-23T15:38:05.868Z,8.03
2018-07-23T15:40:32.960Z,8.40
2018-07-23T15:43:00.053Z,7.80
2018-07-23T15:45:27.370Z,8.40
2018-07-23T15:47:54.260Z,7.73
2018-07-23T15:50:21.371Z,8.40
2018-07-23T15:52:48.473Z,8.10
2018-07-23T15:55:15.595Z,8.20
2018-07-23T15:57:42.673Z,8.33
2018-07-23T16:00:09.786Z,8.23
2018-07-23T16:02:36.873Z,7.73
2018-07-23T16:05:04.005Z,7.73
2018-07-23T16:07:31.100Z,8.00
2018-07-23T16:09:58.188Z,8.10
2018-07-23T16:12:25.361Z,7.87
2018-07-23T16:14:52.502Z,8.47
2018-07-23T16:17:19.589Z,8.13
2018-07-23T16:19:46.685Z,9.13
2018-07-23T16:22:13.792Z,8.43
2018-07-23T16:24:40.893Z,9.20
2018-07-23T16:27:07.989Z,9.33
2018-07-23T16:29:35.081Z,9.40
2018-07-23T16:32:02.199Z,8.30
2018-07-23T16:34:29.302Z,8.60
2018-07-23T16:36:56.600Z,8.40
2018-07-23T16:39:23.688Z,8.40
2018-07-23T16:41:50.772Z,8.17
2018-07-23T16:44:17.880Z,7.90
2018-07-23T16:46:45.042Z,8.03
2018-07-23T16:49:12.072Z,7.70
2018-07-23T16:51:39.177Z,8.20
2018-07-23T16:54:06.252Z,8.20
2018-07-23T16:56:33.312Z,7.87
2018-07-23T16:59:00.458Z,7.70
2018-07-23T17:01:27.553Z,7.40
2018-07-23T17:03:54.648Z,8.07
2018-07-23T17:06:21.754Z,7.40
2018-07-23T17:08:48.877Z,7.60
2018-07-23T17:11:16.422Z,7.27
2018-07-23T17:13:43.606Z,7.73
2018-07-23T17:16:10.830Z,8.10
2018-07-23T17:18:37.945Z,7.50
2018-07-23T17:21:05.077Z,8.53
2018-07-23T17:23:32.224Z,7.60
2018-07-23T17:25:59.350Z,7.20
2018-07-23T17:28:26.445Z,6.90
2018-07-23T17:30:53.534Z,6.97
2018-07-23T17:33:20.644Z,7.33
2018-07-23T17:35:47.765Z,7.20
2018-07-23T17:38:14.852Z,7.10
2018-07-23T17:40:41.941Z,7.10
2018-07-23T17:43:09.048Z,7.17
2018-07-23T17:45:36.192Z,7.47
2018-07-23T17:48:03.341Z,7.53
2018-07-23T17:50:30.525Z,7.10
2018-07-23T17:52:57.777Z,7.07
2018-07-23T17:55:24.905Z,7.53
2018-07-23T17:57:52.010Z,7.37
2018-07-23T18:00:19.320Z,6.90
2018-07-23T18:02:46.414Z,7.50
2018-07-23T18:05:13.562Z,7.60
2018-07-23T18:07:40.662Z,7.60
2018-07-23T18:10:07.778Z,7.70
2018-07-23T18:12:34.917Z,7.77
2018-07-23T18:15:02.061Z,8.03
2018-07-23T18:17:29.183Z,8.80
2018-07-23T18:19:56.473Z,9.33
2018-07-23T18:22:23.672Z,9.10
2018-07-23T18:24:50.785Z,9.00
2018-07-23T18:27:17.980Z,8.10
2018-07-23T18:29:45.090Z,8.10
2018-07-23T18:32:12.232Z,8.27
2018-07-23T18:34:39.348Z,8.53
2018-07-23T18:37:06.559Z,8.33
2018-07-23T18:39:33.633Z,8.17
2018-07-23T18:42:00.726Z,8.33
2018-07-23T18:44:27.830Z,9.17
2018-07-23T18:46:54.969Z,9.93
2018-07-23T18:49:32.202Z,10.87
2018-07-23T18:51:59.335Z,11.67
2018-07-23T18:54:27.591Z,11.27
2018-07-23T18:56:56.765Z,12.00
2018-07-23T18:59:23.919Z,10.67
2018-07-23T19:01:51.913Z,10.20
2018-07-23T19:04:19.048Z,10.90
2018-07-23T19:06:46.240Z,11.40
2018-07-23T19:09:14.433Z,11.37
2018-07-23T19:11:42.723Z,10.97
2018-07-23T19:14:09.886Z,11.43
2018-07-23T19:16:37.853Z,10.63
2018-07-23T19:19:04.986Z,10.73
2018-07-23T19:21:33.046Z,13.10
2018-07-23T19:24:00.200Z,11.47
2018-07-23T19:26:27.633Z,10.50
2018-07-23T19:28:55.137Z,10.13
2018-07-23T19:31:22.497Z,10.10
2018-07-23T19:33:49.597Z,10.80
2018-07-23T19:36:17.126Z,10.87
2018-07-23T19:38:44.248Z,10.93
2018-07-23T19:41:11.436Z,10.70
2018-07-23T19:43:39.156Z,11.47
2018-07-23T19:46:06.327Z,11.07
2018-07-23T19:48:33.588Z,11.03
2018-07-23T19:51:00.833Z,11.70
2018-07-23T19:53:27.943Z,10.63
2018-07-23T19:55:55.178Z,11.20
2018-07-23T19:58:22.368Z,11.50
2018-07-23T20:00:49.609Z,10.83
2018-07-23T20:03:16.775Z,12.40
2018-07-23T20:05:43.917Z,12.07
2018-07-23T20:08:11.038Z,11.27
2018-07-23T20:10:38.194Z,11.70
2018-07-23T20:13:05.453Z,12.30
2018-07-23T20:15:32.645Z,11.43
2018-07-23T20:17:59.850Z,10.63
2018-07-23T20:20:27.010Z,11.30
2018-07-23T20:22:54.169Z,11.00
2018-07-23T20:25:21.276Z,11.30
2018-07-23T20:27:48.453Z,11.13
2018-07-23T20:30:15.583Z,10.83
2018-07-23T20:32:42.814Z,11.00
2018-07-23T20:35:10.012Z,10.93
2018-07-23T20:37:37.229Z,10.70
2018-07-23T20:40:04.367Z,10.93
2018-07-23T20:42:31.525Z,10.33
2018-07-23T20:44:58.639Z,10.70
2018-07-23T20:47:25.744Z,10.43
2018-07-23T20:49:52.859Z,10.63
2018-07-23T20:52:19.969Z,11.10
2018-07-23T20:54:47.132Z,10.17
2018-07-23T20:57:14.240Z,11.17
2018-07-23T20:59:41.353Z,10.97
2018-07-23T21:02:08.817Z,10.50
2018-07-23T21:04:35.956Z,10.60
2018-07-23T21:07:03.069Z,11.40
2018-07-23T21:09:30.558Z,10.90
2018-07-23T21:11:57.669Z,11.10
2018-07-23T21:14:24.793Z,10.77
2018-07-23T21:16:51.896Z,9.90
2018-07-23T21:19:19.061Z,10.60
2018-07-23T21:21:46.187Z,10.43
2018-07-23T21:24:13.368Z,10.50
2018-07-23T21:26:40.497Z,10.50
2018-07-23T21:29:07.638Z,10.30
2018-07-23T21:31:34.759Z,10.10
2018-07-23T21:34:01.869Z,10.97
2018-07-23T21:36:28.985Z,10.77
2018-07-23T21:38:56.093Z,10.73
2018-07-23T21:41:23.202Z,10.93
2018-07-23T21:43:50.375Z,10.30
2018-07-23T21:46:17.489Z,10.13
2018-07-23T21:48:44.616Z,9.97
2018-07-23T21:51:11.745Z,10.33
2018-07-23T21:53:38.870Z,10.20
2018-07-23T21:56:06.143Z,10.73
2018-07-23T21:58:33.248Z,10.77
2018-07-23T22:01:00.382Z,10.50
2018-07-23T22:03:27.508Z,10.87
2018-07-23T22:05:54.634Z,13.17
2018-07-23T22:08:21.749Z,10.67
2018-07-23T22:10:48.865Z,10.80
2018-07-23T22:13:15.975Z,10.07
2018-07-23T22:15:43.079Z,9.90
2018-07-23T22:18:10.251Z,10.13
2018-07-23T22:20:37.361Z,10.40
2018-07-23T22:23:04.625Z,10.20
2018-07-23T22:25:31.746Z,10.20
2018-07-23T22:27:58.809Z,10.80
2018-07-23T22:30:26.157Z,10.17
2018-07-23T22:32:53.358Z,10.03
2018-07-23T22:35:20.465Z,10.27
2018-07-23T22:37:47.594Z,9.80
2018-07-23T22:40:14.813Z,10.57
2018-07-23T22:42:42.120Z,10.73
2018-07-23T22:45:09.241Z,10.30
2018-07-23T22:47:36.434Z,10.37
2018-07-23T22:50:03.813Z,10.57
2018-07-23T22:52:30.914Z,9.90
2018-07-23T22:54:58.032Z,9.90
2018-07-23T22:57:25.156Z,10.70
2018-07-23T22:59:52.265Z,10.60
2018-07-23T23:02:19.393Z,9.80
2018-07-23T23:04:46.508Z,10.57
2018-07-23T23:07:13.709Z,10.07
2018-07-23T23:09:41.037Z,9.83
2018-07-23T23:12:08.637Z,10.40
2018-07-23T23:14:35.744Z,10.70
2018-07-23T23:17:02.860Z,9.50
2018-07-23T23:19:30.126Z,10.50
2018-07-23T23:21:57.261Z,9.50
2018-07-23T23:24:24.381Z,9.57
2018-07-23T23:26:51.750Z,10.40
2018-07-23T23:29:18.950Z,9.90
2018-07-23T23:31:46.077Z,10.50
2018-07-23T23:34:13.244Z,10.30
2018-07-23T23:36:40.343Z,10.47
2018-07-23T23:39:08.696Z,10.67
2018-07-23T23:41:35.797Z,10.60
2018-07-23T23:44:02.913Z,10.70
2018-07-23T23:46:30.130Z,10.63
2018-07-23T23:48:57.233Z,11.33
2018-07-23T23:51:24.349Z,10.30
2018-07-23T23:53:51.460Z,10.40
2018-07-23T23:56:18.600Z,10.80
2018-07-23T23:58:45.712Z,11.20
